Time;durP1;ratioP1;P1;durP2;ratioP2;P2;SDS_P1;SDS_P2;PMS_P1;PMS_P2;Temp;Humidity;BMP_temperature;BMP_pressure;BME280_temperature;BME280_humidity;BME280_pressure;Samples;Min_cycle;Max_cycle;Signal;HPM_P1;HPM_P2
2024/02/04 00:04:32;;;;;;;0.50;0.50;;;;;;;8.72;100.00;150864.44;10671259;27;20387;-73
2024/02/04 00:09:34;;;;;;;0.98;0.70;;;;;;;8.68;100.00;150855.44;10670718;27;20041;-74
2024/02/04 00:14:38;;;;;;;0.80;0.75;;;;;;;8.63;100.00;150841.22;10671436;27;20491;-73
2024/02/04 00:19:40;;;;;;;0.70;0.70;;;;;;;8.62;100.00;150839.94;10671076;27;20047;-73
2024/02/04 00:24:41;;;;;;;0.77;0.77;;;;;;;8.65;100.00;150846.41;10671475;27;20041;-73
2024/02/04 00:29:43;;;;;;;0.93;0.65;;;;;;;8.49;100.00;150807.72;10672239;27;20058;-73
2024/02/04 00:34:45;;;;;;;1.00;0.90;;;;;;;8.45;100.00;150797.38;10672761;27;20046;-73
2024/02/04 00:39:47;;;;;;;0.80;0.80;;;;;;;8.48;100.00;150803.84;10653682;27;20058;-72
2024/02/04 00:44:49;;;;;;;1.83;0.70;;;;;;;8.50;100.00;150810.31;10652890;27;20094;-71
2024/02/04 00:49:51;;;;;;;0.70;0.63;;;;;;;8.48;100.00;150803.84;10671853;27;20038;-73
2024/02/04 00:54:53;;;;;;;0.60;0.60;;;;;;;8.37;100.00;150775.47;10671086;27;20065;-73
2024/02/04 00:59:55;;;;;;;1.67;1.20;;;;;;;8.30;100.00;150759.97;10651044;27;20038;-74
2024/02/04 01:04:57;;;;;;;0.85;0.82;;;;;;;8.25;100.00;150745.81;10671105;27;20034;-72
2024/02/04 01:09:58;;;;;;;1.15;0.70;;;;;;;8.20;100.00;150732.94;10660901;27;20035;-73
2024/02/04 01:15:03;;;;;;;0.82;0.68;;;;;;;8.27;100.00;150750.94;10679362;27;20087;-73
2024/02/04 01:20:05;;;;;;;0.65;0.50;;;;;;;8.33;100.00;150767.72;10677342;27;20111;-73
2024/02/04 01:25:08;;;;;;;0.73;0.60;;;;;;;8.39;100.00;150781.94;10658930;27;20043;-72
2024/02/04 01:30:10;;;;;;;0.70;0.70;;;;;;;8.47;100.00;150801.28;10677482;27;20046;-72
2024/02/04 01:35:12;;;;;;;0.60;0.52;;;;;;;8.48;100.00;150805.13;10659822;27;20047;-73
2024/02/04 01:40:14;;;;;;;0.50;0.43;;;;;;;8.29;100.00;150756.13;10678958;27;20047;-72
2024/02/04 01:45:16;;;;;;;0.52;0.52;;;;;;;8.24;100.00;150743.25;10659420;27;20410;-73
2024/02/04 01:50:18;;;;;;;0.43;0.43;;;;;;;8.18;100.00;150727.75;10659220;27;20391;-73
2024/02/04 01:55:20;;;;;;;0.85;0.60;;;;;;;8.22;100.00;150738.06;10677436;27;20141;-73
2024/02/04 02:00:22;;;;;;;0.50;0.50;;;;;;;8.07;100.00;150702.00;10658501;27;20038;-72
2024/02/04 02:05:25;;;;;;;0.52;0.50;;;;;;;8.06;100.00;150698.16;10658465;27;20133;-72
2024/02/04 02:10:27;;;;;;;0.50;0.50;;;;;;;8.01;100.00;150685.22;10676655;27;20542;-73
2024/02/04 02:15:36;;;;;;;0.60;0.60;;;;;;;7.86;100.00;150647.88;10676501;27;20051;-72
2024/02/04 02:21:12;;;;;;;0.50;0.50;;;;;;;7.80;100.00;150632.44;10675937;27;20030;-74
2024/02/04 02:26:16;;;;;;;0.80;0.80;;;;;;;7.86;100.00;150646.59;10657067;27;20114;-72
2024/02/04 02:31:18;;;;;;;0.75;0.75;;;;;;;7.88;100.00;150653.03;10656844;27;20042;-73
2024/02/04 02:36:56;;;;;;;1.55;1.20;;;;;;;7.98;100.00;150677.53;10676685;27;20039;-73
2024/02/04 02:42:01;;;;;;;2.03;1.63;;;;;;;7.97;100.00;150676.22;10677336;27;20105;-72
2024/02/04 02:47:05;;;;;;;2.13;1.90;;;;;;;8.05;100.00;150696.81;10656684;27;20038;-74
2024/02/04 02:52:07;;;;;;;1.63;1.52;;;;;;;8.08;100.00;150704.56;10675078;27;20031;-73
2024/02/04 02:57:09;;;;;;;2.25;1.50;;;;;;;8.20;100.00;150732.94;10674282;27;20460;-72
2024/02/04 03:02:13;;;;;;;2.13;1.75;;;;;;;8.15;100.00;150720.06;10673544;27;20065;-72
2024/02/04 03:07:15;;;;;;;2.17;1.98;;;;;;;8.21;100.00;150736.78;10654692;27;20047;-73
2024/02/04 03:12:16;;;;;;;2.30;1.60;;;;;;;8.27;100.00;150752.22;10654966;27;20528;-73
2024/02/04 03:17:20;;;;;;;1.73;1.48;;;;;;;8.15;100.00;150720.06;10673628;27;20127;-72
2024/02/04 03:22:25;;;;;;;1.60;1.40;;;;;;;8.20;100.00;150732.94;10654005;27;20042;-73
2024/02/04 03:27:27;;;;;;;1.20;0.90;;;;;;;8.24;100.00;150744.53;10653161;27;20050;-72
2024/02/04 03:32:33;;;;;;;1.65;1.08;;;;;;;8.21;100.00;150735.50;10674379;27;20062;-72
2024/02/04 03:37:36;;;;;;;1.35;0.70;;;;;;;8.21;100.00;150736.78;10638616;27;20087;-72
2024/02/04 03:42:38;;;;;;;1.02;0.70;;;;;;;8.30;100.00;150758.69;10672456;27;20049;-73
2024/02/04 03:47:40;;;;;;;1.05;0.93;;;;;;;8.25;100.00;150747.09;10653070;27;20445;-72
2024/02/04 03:52:43;;;;;;;0.85;0.60;;;;;;;8.08;100.00;150704.56;10671422;27;20041;-73
2024/02/04 03:57:45;;;;;;;1.02;0.80;;;;;;;7.98;100.00;150677.53;10652807;27;20043;-74
2024/02/04 04:02:47;;;;;;;1.23;0.82;;;;;;;7.93;100.00;150665.91;10670588;27;20039;-72
2024/02/04 04:07:48;;;;;;;1.38;1.15;;;;;;;8.02;100.00;150689.13;10652174;27;20099;-73
2024/02/04 04:12:50;;;;;;;1.23;1.13;;;;;;;8.01;100.00;150686.53;10652565;27;20042;-73
2024/02/04 04:17:52;;;;;;;2.45;1.40;;;;;;;7.84;100.00;150642.72;10651327;27;20107;-73
2024/02/04 04:22:54;;;;;;;2.85;1.85;;;;;;;7.84;100.00;150642.72;10670188;27;20092;-74
2024/02/04 04:27:58;;;;;;;2.22;1.55;;;;;;;8.12;100.00;150713.59;10671569;27;20368;-74
2024/02/04 04:32:59;;;;;;;3.08;1.20;;;;;;;8.20;100.00;150732.94;10670254;27;20047;-74
2024/02/04 04:38:02;;;;;;;2.10;1.65;;;;;;;8.32;100.00;150763.84;10670336;27;20039;-74
2024/02/04 04:43:03;;;;;;;1.63;1.20;;;;;;;8.24;100.00;150743.25;10651125;27;20395;-74
2024/02/04 04:48:07;;;;;;;1.92;1.30;;;;;;;8.35;100.00;150771.59;10651481;27;20494;-73
2024/02/04 04:53:09;;;;;;;1.25;1.00;;;;;;;8.41;100.00;150785.78;10669603;27;20039;-74
2024/02/04 04:58:11;;;;;;;1.60;1.08;;;;;;;8.31;100.00;150762.56;10670772;27;20038;-73
2024/02/04 05:03:13;;;;;;;1.15;1.05;;;;;;;8.35;100.00;150772.88;10671718;27;20443;-73
2024/02/04 05:08:15;;;;;;;1.20;0.90;;;;;;;8.40;100.00;150783.22;10652511;27;20042;-73
2024/02/04 05:13:17;;;;;;;1.63;0.70;;;;;;;8.29;100.00;150757.41;10670629;27;20509;-74
2024/02/04 05:18:19;;;;;;;1.55;1.30;;;;;;;8.28;100.00;150754.84;10671715;27;20400;-73
2024/02/04 05:23:20;;;;;;;1.35;0.93;;;;;;;8.22;100.00;150738.06;10670669;27;20519;-72
2024/02/04 05:28:22;;;;;;;0.88;0.73;;;;;;;8.26;100.00;150749.66;10669337;27;20038;-73
2024/02/04 05:33:24;;;;;;;2.00;0.90;;;;;;;8.35;100.00;150771.59;10669973;27;20513;-73
2024/02/04 05:38:26;;;;;;;1.02;0.90;;;;;;;8.30;100.00;150758.69;10669520;27;20087;-73
2024/02/04 05:43:28;;;;;;;1.92;1.58;;;;;;;8.17;100.00;150725.19;10669789;27;20055;-74
2024/02/04 05:48:30;;;;;;;1.30;1.10;;;;;;;8.20;100.00;150734.22;10668186;27;20091;-74
2024/02/04 05:53:32;;;;;;;1.48;1.15;;;;;;;8.12;100.00;150712.31;10673373;27;20125;-73
2024/02/04 05:58:33;;;;;;;1.70;1.20;;;;;;;8.16;100.00;150722.63;10676874;27;20509;-73
2024/02/04 06:03:35;;;;;;;2.08;1.42;;;;;;;8.21;100.00;150735.50;10677063;27;20392;-73
2024/02/04 06:08:37;;;;;;;1.35;1.10;;;;;;;8.30;100.00;150758.69;10658773;27;20046;-72
2024/02/04 06:13:41;;;;;;;1.38;1.00;;;;;;;8.23;100.00;150741.91;10657285;27;20069;-73
2024/02/04 06:18:42;;;;;;;1.25;0.80;;;;;;;8.19;100.00;150730.31;10675968;27;20038;-72
2024/02/04 06:23:44;;;;;;;1.23;1.00;;;;;;;8.37;100.00;150776.81;10676872;27;20057;-72
2024/02/04 06:28:48;;;;;;;1.67;1.15;;;;;;;8.20;100.00;150734.22;10676908;27;20463;-72
2024/02/04 06:33:51;;;;;;;2.03;1.00;;;;;;;8.29;100.00;150757.41;10657488;27;20414;-73
2024/02/04 06:38:53;;;;;;;0.77;0.77;;;;;;;8.21;100.00;150735.50;10675996;27;20118;-72
2024/02/04 06:43:55;;;;;;;1.30;0.82;;;;;;;8.03;100.00;150691.69;10658541;27;20074;-73
2024/02/04 06:48:57;;;;;;;0.88;0.77;;;;;;;8.14;100.00;150717.44;10676215;27;20113;-72
2024/02/04 06:54:00;;;;;;;1.25;0.80;;;;;;;8.11;100.00;150711.03;10675257;27;20043;-72
2024/02/04 06:59:02;;;;;;;0.82;0.73;;;;;;;8.12;100.00;150713.59;10675742;27;20099;-73
2024/02/04 07:04:04;;;;;;;1.20;0.80;;;;;;;8.17;100.00;150725.19;10673644;27;20026;-72
2024/02/04 07:09:06;;;;;;;1.02;0.77;;;;;;;8.23;100.00;150741.91;10675535;27;20061;-73
2024/02/04 07:14:08;;;;;;;0.73;0.57;;;;;;;8.39;100.00;150781.94;10674612;27;20066;-73
2024/02/04 07:19:10;;;;;;;0.60;0.60;;;;;;;8.43;100.00;150792.25;10674300;27;20043;-73
2024/02/04 07:24:12;;;;;;;0.50;0.43;;;;;;;8.64;100.00;150845.13;10674710;27;20098;-75
2024/02/04 07:29:14;;;;;;;0.60;0.57;;;;;;;8.62;100.00;150838.66;10675972;27;20039;-73
2024/02/04 07:34:16;;;;;;;0.55;0.40;;;;;;;8.64;100.00;150845.13;10674944;27;20058;-74
2024/02/04 07:39:18;;;;;;;0.50;0.50;;;;;;;8.71;100.00;150861.88;10674518;27;20054;-74
2024/02/04 07:44:20;;;;;;;0.40;0.40;;;;;;;8.82;100.00;150890.25;10654739;27;20129;-72
2024/02/04 07:49:22;;;;;;;0.75;0.30;;;;;;;8.89;100.00;150908.28;10654489;27;20046;-74
2024/02/04 07:54:24;;;;;;;0.20;0.20;;;;;;;8.89;100.00;150907.00;10639276;27;20497;-74
2024/02/04 07:59:26;;;;;;;0.20;0.20;;;;;;;9.04;100.00;150947.00;10673334;27;20035;-74
2024/02/04 08:04:28;;;;;;;0.10;0.10;;;;;;;9.23;100.00;150993.41;10654884;27;20045;-73
2024/02/04 08:09:29;;;;;;;0.25;0.20;;;;;;;9.33;100.00;151019.19;10672116;27;20041;-72
2024/02/04 08:14:31;;;;;;;0.10;0.10;;;;;;;9.37;100.00;151028.22;10671620;27;20407;-74
2024/02/04 08:19:33;;;;;;;0.25;0.20;;;;;;;9.37;100.00;151029.53;10671696;27;20502;-72
2024/02/04 08:24:36;;;;;;;0.20;0.20;;;;;;;9.54;100.00;151072.09;10672443;27;20123;-74
2024/02/04 08:29:38;;;;;;;0.40;0.30;;;;;;;9.61;100.00;151090.19;10671947;27;20479;-73
2024/02/04 08:34:39;;;;;;;0.68;0.28;;;;;;;9.63;100.00;151095.31;10671158;27;20084;-73
2024/02/04 08:39:41;;;;;;;0.20;0.20;;;;;;;9.65;100.00;151099.19;10671132;27;20062;-73
2024/02/04 08:44:44;;;;;;;0.32;0.20;;;;;;;9.68;100.00;151106.94;10670811;27;20065;-72
2024/02/04 08:49:46;;;;;;;0.13;0.13;;;;;;;9.72;100.00;151118.53;10650787;27;20063;-72
2024/02/04 08:54:48;;;;;;;0.10;0.10;;;;;;;9.77;100.00;151131.44;10671086;27;20050;-74
2024/02/04 08:59:49;;;;;;;0.70;0.20;;;;;;;9.85;100.00;151152.09;10669076;27;20034;-72
2024/02/04 09:04:51;;;;;;;0.28;0.20;;;;;;;9.72;100.00;151117.25;10649984;27;20122;-73
2024/02/04 09:09:53;;;;;;;0.30;0.30;;;;;;;9.57;100.00;151081.13;10669543;27;20041;-74
2024/02/04 09:14:55;;;;;;;0.10;0.10;;;;;;;9.36;100.00;151026.94;10648938;27;20378;-73
2024/02/04 09:19:57;;;;;;;0.28;0.20;;;;;;;9.26;100.00;151001.16;10669378;27;20046;-72
2024/02/04 09:24:59;;;;;;;0.40;0.40;;;;;;;9.18;100.00;150981.81;10668356;27;20050;-72
2024/02/04 09:30:01;;;;;;;1.85;1.75;;;;;;;9.17;100.00;150979.25;10658100;27;20043;-74
2024/02/04 09:35:04;;;;;;;0.30;0.30;;;;;;;9.12;100.00;150965.03;10661308;27;20047;-74
2024/02/04 09:40:07;;;;;;;0.38;0.30;;;;;;;9.18;100.00;150981.81;10677742;27;20043;-73
2024/02/04 09:45:11;;;;;;;0.20;0.20;;;;;;;9.21;100.00;150988.22;10678789;27;20050;-73
2024/02/04 09:50:13;;;;;;;0.20;0.20;;;;;;;9.22;100.00;150990.84;10678475;27;20041;-72
2024/02/04 09:55:23;;;;;;;0.15;0.15;;;;;;;9.27;100.00;151005.03;10659178;27;20043;-74
2024/02/04 10:00:29;;;;;;;0.73;0.17;;;;;;;9.41;100.00;151038.56;10677574;27;20066;-73
2024/02/04 10:05:31;;;;;;;0.20;0.20;;;;;;;9.48;100.00;151056.63;10657948;27;20047;-73
2024/02/04 10:10:33;;;;;;;0.57;0.47;;;;;;;9.38;100.00;151032.09;10678062;27;20053;-73
2024/02/04 10:15:36;;;;;;;0.38;0.20;;;;;;;9.32;100.00;151016.63;10677228;27;20039;-73
2024/02/04 10:20:38;;;;;;;0.50;0.28;;;;;;;9.34;100.00;151023.09;10659502;27;20043;-73
2024/02/04 10:25:40;;;;;;;0.52;0.50;;;;;;;9.08;100.00;150957.31;10677845;27;20050;-73
2024/02/04 10:30:42;;;;;;;0.38;0.38;;;;;;;9.18;100.00;150981.81;10658018;27;20038;-72
2024/02/04 10:35:44;;;;;;;0.68;0.50;;;;;;;9.25;100.00;150999.88;10676207;27;20421;-73
2024/02/04 10:40:47;;;;;;;0.80;0.60;;;;;;;9.10;100.00;150962.44;10678566;27;20080;-75
2024/02/04 10:45:54;;;;;;;1.50;0.90;;;;;;;9.16;100.00;150976.63;10678109;27;20414;-74
2024/02/04 10:50:59;;;;;;;1.02;0.70;;;;;;;9.22;100.00;150992.13;10643061;27;20095;-74
2024/02/04 10:56:04;;;;;;;0.68;0.60;;;;;;;9.27;100.00;151003.75;10659178;27;20042;-73
2024/02/04 11:01:07;;;;;;;1.75;0.63;;;;;;;9.22;100.00;150990.84;10677422;27;20430;-73
2024/02/04 11:06:10;;;;;;;0.43;0.40;;;;;;;9.35;100.00;151025.66;10657268;27;20038;-73
2024/02/04 11:11:14;;;;;;;0.30;0.30;;;;;;;9.39;100.00;151034.72;10674996;27;20034;-74
2024/02/04 11:16:40;;;;;;;0.40;0.40;;;;;;;9.40;100.00;151037.28;10674648;27;20046;-73
2024/02/04 11:22:19;;;;;;;0.57;0.30;;;;;;;9.49;100.00;151060.50;10675518;27;20049;-73
2024/02/04 11:27:21;;;;;;;1.10;0.85;;;;;;;9.44;100.00;151046.31;10674921;27;20043;-74
2024/02/04 11:32:24;;;;;;;3.05;1.88;;;;;;;9.58;100.00;151083.72;10674165;27;20038;-74
2024/02/04 11:37:27;;;;;;;10.32;5.00;;;;;;;9.61;100.00;151090.19;10674097;27;20038;-74
2024/02/04 11:42:32;;;;;;;1.55;0.70;;;;;;;9.60;100.00;151088.84;10673408;27;20451;-73
2024/02/04 11:47:37;;;;;;;5.53;2.30;;;;;;;9.59;100.00;151086.28;10674221;27;20394;-73
2024/02/04 11:52:41;;;;;;;3.78;2.08;;;;;;;9.50;100.00;151061.78;10673092;27;20143;-73
2024/02/04 11:57:43;;;;;;;0.98;0.88;;;;;;;9.32;100.00;151017.91;10672587;27;20122;-73
2024/02/04 12:02:45;;;;;;;1.00;0.90;;;;;;;9.34;100.00;151021.78;10655480;27;20122;-74
2024/02/04 12:07:47;;;;;;;1.20;0.60;;;;;;;9.51;100.00;151065.63;10654595;27;20518;-74
2024/02/04 12:12:50;;;;;;;0.60;0.50;;;;;;;9.48;100.00;151056.63;10672429;27;20039;-73
2024/02/04 12:17:51;;;;;;;1.30;0.50;;;;;;;9.63;100.00;151095.31;10670621;27;20038;-74
2024/02/04 12:22:53;;;;;;;0.68;0.68;;;;;;;9.72;100.00;151117.25;10670560;27;20039;-73
2024/02/04 12:27:55;;;;;;;0.63;0.63;;;;;;;9.85;100.00;151152.09;10677171;27;20388;-73
2024/02/04 12:33:02;;;;;;;0.60;0.60;;;;;;;9.86;100.00;151154.66;10675666;27;20090;-72
2024/02/04 12:38:04;;;;;;;1.15;0.70;;;;;;;9.89;100.00;151159.84;10687255;27;20035;-73
2024/02/04 12:43:05;;;;;;;0.75;0.68;;;;;;;9.96;100.00;151179.22;10668175;27;20404;-73
2024/02/04 12:48:08;;;;;;;0.50;0.50;;;;;;;10.06;100.00;151203.75;10669915;27;20045;-74
2024/02/04 12:53:15;;;;;;;0.95;0.77;;;;;;;10.23;100.00;151246.34;10671535;27;20041;-74
2024/02/04 12:58:17;;;;;;;0.55;0.50;;;;;;;10.19;96.57;151237.28;10655276;27;20059;-74
2024/02/04 13:03:20;;;;;;;0.95;0.77;;;;;;;10.25;96.22;151251.53;10671397;27;20064;-73
2024/02/04 13:08:21;;;;;;;0.75;0.60;;;;;;;10.36;95.88;151279.94;10671079;27;20421;-75
2024/02/04 13:13:27;;;;;;;0.60;0.60;;;;;;;10.43;92.82;151298.00;10652149;27;20409;-74
2024/02/04 13:18:28;;;;;;;0.70;0.50;;;;;;;10.30;95.33;151265.72;10672086;27;20046;-75
2024/02/04 13:23:30;;;;;;;1.15;0.60;;;;;;;10.48;94.99;151310.91;10669614;27;20207;-74
2024/02/04 13:28:32;;;;;;;0.88;0.45;;;;;;;10.54;93.76;151326.44;10671457;27;20054;-78
2024/02/04 13:33:34;;;;;;;0.50;0.50;;;;;;;10.39;96.44;151287.66;10670726;27;20402;-73
2024/02/04 13:38:36;;;;;;;0.95;0.60;;;;;;;10.35;100.00;151277.34;10670905;27;20039;-75
2024/02/04 13:43:38;;;;;;;0.65;0.60;;;;;;;10.13;100.00;151220.50;10651816;27;20507;-74
2024/02/04 13:48:40;;;;;;;0.60;0.60;;;;;;;10.06;100.00;151205.03;10653060;27;20051;-74
2024/02/04 13:53:45;;;;;;;0.52;0.50;;;;;;;10.06;100.00;151205.03;10671467;27;20066;-74
2024/02/04 13:58:46;;;;;;;1.10;0.68;;;;;;;9.86;100.00;151154.66;10672621;27;20050;-74
2024/02/04 14:03:49;;;;;;;1.38;0.68;;;;;;;9.85;100.00;151150.81;10671599;27;20121;-74
2024/02/04 14:08:51;;;;;;;0.70;0.70;;;;;;;9.59;100.00;151085.00;10671193;27;20111;-74
2024/02/04 14:13:53;;;;;;;1.00;0.90;;;;;;;9.35;100.00;151025.66;10675222;27;20115;-73
2024/02/04 14:18:55;;;;;;;1.00;0.63;;;;;;;9.30;100.00;151012.78;10678517;27;20046;-74
2024/02/04 14:24:02;;;;;;;0.70;0.52;;;;;;;9.27;100.00;151003.75;10680464;27;20039;-75
2024/02/04 14:29:03;;;;;;;0.60;0.60;;;;;;;9.26;100.00;151001.16;10678003;27;20070;-74
2024/02/04 14:34:05;;;;;;;0.40;0.40;;;;;;;9.36;100.00;151026.94;10678811;27;20439;-74
2024/02/04 14:39:08;;;;;;;0.50;0.45;;;;;;;9.30;100.00;151011.50;10658345;27;20092;-73
2024/02/04 14:44:10;;;;;;;1.52;0.60;;;;;;;9.29;100.00;151008.88;10657401;27;20051;-74
2024/02/04 14:49:12;;;;;;;0.40;0.40;;;;;;;9.17;99.75;150977.94;10676231;27;20042;-74
2024/02/04 14:54:14;;;;;;;1.08;0.40;;;;;;;9.23;97.55;150993.41;10675765;27;20042;-73
2024/02/04 14:59:16;;;;;;;0.88;0.40;;;;;;;9.09;98.55;150959.88;10676605;27;20038;-74
2024/02/04 15:04:24;;;;;;;0.80;0.45;;;;;;;9.27;95.74;151005.03;10675866;27;20067;-74
2024/02/04 15:09:26;;;;;;;1.30;0.60;;;;;;;9.19;95.57;150984.38;10675841;27;20091;-74
2024/02/04 15:14:28;;;;;;;0.30;0.30;;;;;;;9.18;96.00;150980.53;10675457;27;20066;-74
2024/02/04 15:19:32;;;;;;;0.65;0.50;;;;;;;8.94;98.81;150919.88;10656735;27;20521;-73
2024/02/04 15:24:34;;;;;;;0.43;0.30;;;;;;;9.02;100.00;150941.81;10674114;27;20521;-74
2024/02/04 15:29:37;;;;;;;0.65;0.30;;;;;;;8.76;100.00;150876.03;10675664;27;20076;-75
2024/02/04 15:34:41;;;;;;;1.15;0.57;;;;;;;8.77;100.00;150877.38;10674610;27;20549;-74
2024/02/04 15:39:43;;;;;;;1.20;0.80;;;;;;;8.66;100.00;150848.97;10675955;27;20035;-74
2024/02/04 15:44:45;;;;;;;0.40;0.40;;;;;;;8.72;100.00;150865.75;10655185;27;20042;-75
2024/02/04 15:49:47;;;;;;;0.50;0.38;;;;;;;8.65;100.00;150847.69;10673294;27;20160;-74
2024/02/04 15:54:51;;;;;;;1.13;1.13;;;;;;;8.61;100.00;150836.09;10656204;27;20042;-73
2024/02/04 16:00:17;;;;;;;1.27;0.50;;;;;;;8.55;100.00;150823.22;10675409;27;20043;-74
2024/02/04 16:05:20;;;;;;;0.40;0.40;;;;;;;8.65;100.00;150846.41;10656438;27;20074;-75
2024/02/04 16:10:23;;;;;;;0.50;0.50;;;;;;;8.65;100.00;150846.41;10674093;27;20035;-74
2024/02/04 16:15:27;;;;;;;0.80;0.50;;;;;;;8.52;100.00;150814.19;10673081;27;20095;-74
2024/02/04 16:20:30;;;;;;;0.57;0.50;;;;;;;8.50;100.00;150809.00;10654100;27;20039;-74
2024/02/04 16:25:33;;;;;;;1.55;0.52;;;;;;;8.63;100.00;150842.50;10655158;27;20043;-75
2024/02/04 16:30:35;;;;;;;0.57;0.47;;;;;;;8.51;100.00;150812.88;10673439;27;20065;-73
2024/02/04 16:35:38;;;;;;;0.60;0.60;;;;;;;8.56;100.00;150825.78;10672651;27;20054;-73
2024/02/04 16:40:40;;;;;;;1.25;0.80;;;;;;;8.52;100.00;150815.47;10672596;27;20039;-76
2024/02/04 16:45:42;;;;;;;0.52;0.50;;;;;;;8.54;100.00;150819.31;10655009;27;20046;-74
2024/02/04 16:50:46;;;;;;;1.08;0.70;;;;;;;8.48;100.00;150803.84;10674475;27;20467;-74
2024/02/04 16:55:48;;;;;;;1.85;1.02;;;;;;;8.45;100.00;150797.38;10673146;27;20425;-75
2024/02/04 17:00:50;;;;;;;1.13;0.77;;;;;;;8.35;100.00;150771.59;10653335;27;20066;-74
2024/02/04 17:05:52;;;;;;;0.98;0.73;;;;;;;8.23;100.00;150740.63;10671624;27;20130;-73
2024/02/04 17:10:58;;;;;;;2.13;1.40;;;;;;;8.03;100.00;150690.41;10676256;27;20056;-73
2024/02/04 17:16:00;;;;;;;0.90;0.80;;;;;;;7.92;100.00;150663.31;10715899;27;20083;-74
2024/02/04 17:21:07;;;;;;;1.33;1.13;;;;;;;8.06;100.00;150699.44;10714410;27;20034;-74
2024/02/04 17:26:12;;;;;;;2.33;1.10;;;;;;;8.04;100.00;150694.25;10701614;27;20034;-73
2024/02/04 17:31:14;;;;;;;1.20;1.10;;;;;;;7.98;100.00;150677.53;10670784;27;20038;-73
2024/02/04 17:36:16;;;;;;;1.20;1.10;;;;;;;7.96;100.00;150672.34;10670238;27;20052;-73
2024/02/04 17:41:20;;;;;;;2.25;1.45;;;;;;;7.83;100.00;150641.44;10670824;27;20517;-73
2024/02/04 17:46:22;;;;;;;1.67;1.45;;;;;;;7.76;100.00;150623.41;10651086;27;20125;-73
2024/02/04 17:51:24;;;;;;;1.50;1.35;;;;;;;7.84;100.00;150642.72;10678150;27;20409;-72
2024/02/04 17:56:25;;;;;;;2.42;1.48;;;;;;;7.89;100.00;150655.59;10677766;27;20054;-74
2024/02/04 18:01:28;;;;;;;1.23;1.00;;;;;;;8.07;100.00;150700.72;10678532;27;20458;-73
2024/02/04 18:06:31;;;;;;;0.70;0.70;;;;;;;7.99;100.00;150681.38;10676643;27;20395;-74
2024/02/04 18:11:33;;;;;;;1.58;1.00;;;;;;;7.88;100.00;150653.03;10675049;27;20083;-73
2024/02/04 18:16:35;;;;;;;1.60;1.23;;;;;;;7.77;100.00;150625.97;10657654;27;20038;-73
2024/02/04 18:21:37;;;;;;;1.33;1.23;;;;;;;7.87;100.00;150649.16;10676814;27;20117;-74
2024/02/04 18:26:40;;;;;;;1.20;0.88;;;;;;;7.86;100.00;150647.88;10676596;27;20042;-73
2024/02/04 18:31:45;;;;;;;0.80;0.80;;;;;;;7.91;100.00;150660.75;10675116;27;20088;-73
2024/02/04 18:36:48;;;;;;;2.08;0.98;;;;;;;8.01;100.00;150685.22;10675904;27;20099;-73
2024/02/04 18:41:49;;;;;;;1.05;0.90;;;;;;;7.78;100.00;150627.25;10677593;27;20413;-74
2024/02/04 18:46:52;;;;;;;1.52;1.15;;;;;;;7.72;100.00;150613.09;10676122;27;20035;-73
2024/02/04 18:51:53;;;;;;;1.20;1.10;;;;;;;7.77;100.00;150625.97;10678092;27;20089;-74
2024/02/04 18:56:55;;;;;;;1.35;0.77;;;;;;;7.96;100.00;150672.34;10676754;27;20043;-73
2024/02/04 19:01:58;;;;;;;1.58;0.80;;;;;;;7.76;100.00;150623.41;10675730;27;20065;-74
2024/02/04 19:07:00;;;;;;;1.10;0.80;;;;;;;7.90;100.00;150658.19;10677223;27;20398;-74
2024/02/04 19:12:03;;;;;;;0.70;0.50;;;;;;;8.04;100.00;150694.25;10677060;27;20035;-73
2024/02/04 19:17:05;;;;;;;0.80;0.70;;;;;;;7.78;100.00;150627.25;10657048;27;20050;-74
2024/02/04 19:22:07;;;;;;;1.02;0.93;;;;;;;7.83;100.00;150640.13;10675814;27;20458;-73
2024/02/04 19:27:09;;;;;;;1.15;0.90;;;;;;;7.79;100.00;150631.13;10676453;27;20042;-75
2024/02/04 19:32:11;;;;;;;1.20;1.10;;;;;;;7.70;100.00;150607.97;10675656;27;20046;-74
2024/02/04 19:37:13;;;;;;;1.88;1.52;;;;;;;7.87;100.00;150650.44;10676266;27;20047;-74
2024/02/04 19:42:17;;;;;;;2.00;1.60;;;;;;;7.69;100.00;150604.06;10674899;27;20039;-74
2024/02/04 19:47:21;;;;;;;1.63;1.50;;;;;;;7.75;100.00;150619.53;10675945;27;20038;-75
2024/02/04 19:52:23;;;;;;;1.00;0.90;;;;;;;7.67;100.00;150600.22;10675501;27;20042;-73
2024/02/04 19:57:25;;;;;;;1.52;1.10;;;;;;;7.63;100.00;150589.91;10673948;27;20046;-75
2024/02/04 20:02:27;;;;;;;1.73;1.30;;;;;;;7.50;100.00;150557.69;10654582;27;20126;-73
2024/02/04 20:07:29;;;;;;;1.65;1.55;;;;;;;7.51;100.00;150560.25;10673492;27;20414;-75
2024/02/04 20:12:31;;;;;;;1.88;1.45;;;;;;;7.62;100.00;150586.06;10655539;27;20153;-73
2024/02/04 20:17:35;;;;;;;1.50;1.40;;;;;;;7.45;100.00;150543.53;10673666;27;20046;-74
2024/02/04 20:22:37;;;;;;;1.25;1.15;;;;;;;7.45;100.00;150544.81;10674250;27;20447;-74
2024/02/04 20:27:39;;;;;;;1.63;1.52;;;;;;;7.42;100.00;150535.78;10673757;27;20573;-73
2024/02/04 20:32:41;;;;;;;1.50;1.40;;;;;;;7.30;100.00;150506.16;10673313;27;20034;-73
2024/02/04 20:37:43;;;;;;;2.28;1.65;;;;;;;7.38;100.00;150525.47;10674322;27;20054;-73
2024/02/04 20:42:44;;;;;;;2.28;1.70;;;;;;;7.44;100.00;150542.25;10655091;27;20045;-73
2024/02/04 20:47:48;;;;;;;1.42;1.33;;;;;;;7.52;100.00;150562.81;10673246;27;20082;-73
2024/02/04 20:52:50;;;;;;;1.85;1.05;;;;;;;7.48;100.00;150552.56;10672113;27;20487;-76
2024/02/04 20:57:52;;;;;;;3.13;1.08;;;;;;;7.46;100.00;150546.09;10674768;27;20467;-73
2024/02/04 21:02:54;;;;;;;1.13;1.02;;;;;;;7.52;100.00;150561.53;10671461;27;20054;-73
2024/02/04 21:07:56;;;;;;;1.38;1.13;;;;;;;7.59;100.00;150580.88;10671478;27;20039;-74
2024/02/04 21:12:58;;;;;;;1.25;1.00;;;;;;;7.47;100.00;150548.66;10672765;27;20034;-73
2024/02/04 21:18:00;;;;;;;0.70;0.70;;;;;;;7.61;100.00;150584.72;10672971;27;20038;-73
2024/02/04 21:23:02;;;;;;;0.60;0.60;;;;;;;7.57;100.00;150574.47;10676336;27;20451;-72
2024/02/04 21:28:04;;;;;;;0.73;0.52;;;;;;;7.73;100.00;150615.66;10682092;27;20046;-72
2024/02/04 21:33:08;;;;;;;0.50;0.47;;;;;;;7.76;100.00;150623.41;10680921;27;20037;-73
2024/02/04 21:38:09;;;;;;;0.43;0.40;;;;;;;7.82;100.00;150637.56;10681089;27;20126;-73
2024/02/04 21:43:11;;;;;;;0.30;0.30;;;;;;;7.87;100.00;150650.44;10680184;27;20039;-73
2024/02/04 21:48:13;;;;;;;0.40;0.40;;;;;;;8.08;100.00;150703.28;10678286;27;20508;-73
2024/02/04 21:53:15;;;;;;;0.22;0.20;;;;;;;8.23;100.00;150741.91;10679881;27;20050;-73
2024/02/04 21:58:17;;;;;;;0.63;0.30;;;;;;;8.35;100.00;150772.88;10680309;27;20405;-72
2024/02/04 22:03:19;;;;;;;0.20;0.20;;;;;;;8.66;100.00;150848.97;10679362;27;20063;-73
2024/02/04 22:08:21;;;;;;;0.10;0.10;;;;;;;8.83;100.00;150892.81;10677355;27;20498;-73
2024/02/04 22:13:23;;;;;;;0.10;0.10;;;;;;;8.94;100.00;150919.88;10677945;27;20034;-74
2024/02/04 22:18:24;;;;;;;0.20;0.20;;;;;;;8.89;100.00;150907.00;10659500;27;20406;-73
2024/02/04 22:23:26;;;;;;;0.20;0.20;;;;;;;8.92;100.00;150916.03;10677254;27;20083;-74
2024/02/04 22:28:28;;;;;;;0.20;0.20;;;;;;;8.97;100.00;150928.91;10677009;27;20039;-74
2024/02/04 22:33:30;;;;;;;0.30;0.30;;;;;;;9.10;100.00;150961.16;10676886;27;20066;-74
2024/02/04 22:38:33;;;;;;;0.25;0.20;;;;;;;9.14;100.00;150970.19;10677347;27;20042;-73
2024/02/04 22:43:38;;;;;;;0.20;0.20;;;;;;;9.15;100.00;150972.78;10675456;27;20043;-74
2024/02/04 22:48:40;;;;;;;0.20;0.20;;;;;;;9.07;100.00;150954.75;10677349;27;20093;-73
2024/02/04 22:53:42;;;;;;;0.20;0.20;;;;;;;9.09;100.00;150959.88;10676327;27;20045;-73
2024/02/04 22:58:44;;;;;;;0.17;0.17;;;;;;;9.15;100.00;150974.06;10675681;27;20046;-73
2024/02/04 23:03:45;;;;;;;0.20;0.20;;;;;;;9.19;100.00;150983.09;10675447;27;20063;-73
2024/02/04 23:08:48;;;;;;;0.40;0.20;;;;;;;9.12;100.00;150966.34;10655731;27;20051;-73
2024/02/04 23:13:50;;;;;;;0.30;0.30;;;;;;;9.07;100.00;150954.75;10674103;27;20019;-73